^^
Your Local Weather - Clay, NY Station Historical Data
Daily Summary for March 9, 2018 Units:  Both    English   Metric
« Previous Day
Next Day »
Daily Weekly Monthly Yearly Custom
  High: Low: Average:
Temperature: 35.9 °F /  2.2 °C 26.7 °F /  -2.9 °C 30.5 °F /  -0.8 °C
Dew Point: 30.2 °F /  -1 °C 21.4 °F /  -5.9 °C 26 °F /  -3.3 °C
Humidity: 92% 64% 84%
Wind Speed: 7.0mph /  11.3km/h - 3.6mph /  5.8km/h
Wind Gust: 16.0mph /  25.7km/h - -
Wind- - West
Pressure: 29.79 in /  1008.7 hPa 29.59 in /  1001.9 hPa -
Precipitation: 0.16 in /  4.06 mm    
Historical Graphs
 
 
Tabular Data for March 9, 2018
Time Temperature Dew Point Pressure Wind Wind Speed Wind Gust Humidity Rainfall Rate (Hourly) solar
00:04 26.7 °F /  -2.9 °C 21.4 °F /  -5.9 °C 29.62in /  1002.9hPa West 1.0mph /  1.6km/h 3.0mph /  4.8km/h 80% 0.00in /  0mm 0 W/m2
00:10 26.8 °F /  -2.9 °C 21.8 °F /  -5.7 °C 29.62in /  1002.9hPa WSW 2.0mph /  3.2km/h 2.0mph /  3.2km/h 81% 0.00in /  0mm 0 W/m2
00:16 26.8 °F /  -2.9 °C 21.8 °F /  -5.7 °C 29.62in /  1002.9hPa WSW 1.0mph /  1.6km/h 2.0mph /  3.2km/h 81% 0.00in /  0mm 0 W/m2
00:22 26.8 °F /  -2.9 °C 21.8 °F /  -5.7 °C 29.62in /  1002.9hPa West 2.0mph /  3.2km/h 4.0mph /  6.4km/h 81% 0.00in /  0mm 0 W/m2
00:28 26.9 °F /  -2.8 °C 21.8 °F /  -5.7 °C 29.62in /  1002.9hPa WSW 2.0mph /  3.2km/h 4.0mph /  6.4km/h 81% 0.00in /  0mm 0 W/m2
00:34 27.0 °F /  -2.8 °C 21.9 °F /  -5.6 °C 29.62in /  1002.9hPa WSW 2.0mph /  3.2km/h 4.0mph /  6.4km/h 81% 0.00in /  0mm 0 W/m2
00:40 27.1 °F /  -2.7 °C 22.3 °F /  -5.4 °C 29.62in /  1002.9hPa WSW 2.0mph /  3.2km/h 2.0mph /  3.2km/h 82% 0.00in /  0mm 0 W/m2
00:46 27.1 °F /  -2.7 °C 22.3 °F /  -5.4 °C 29.62in /  1002.9hPa WSW 3.0mph /  4.8km/h 4.0mph /  6.4km/h 82% 0.00in /  0mm 0 W/m2
00:52 27.2 °F /  -2.7 °C 22.4 °F /  -5.3 °C 29.62in /  1002.9hPa WSW 2.0mph /  3.2km/h 3.0mph /  4.8km/h 82% 0.00in /  0mm 0 W/m2
00:58 27.2 °F /  -2.7 °C 22.4 °F /  -5.3 °C 29.62in /  1002.9hPa West 2.0mph /  3.2km/h 4.0mph /  6.4km/h 82% 0.00in /  0mm 0 W/m2
01:04 27.2 °F /  -2.7 °C 22.4 °F /  -5.3 °C 29.61in /  1002.6hPa SW 2.0mph /  3.2km/h 8.0mph /  12.9km/h 82% 0.00in /  0mm 0 W/m2
01:10 27.2 °F /  -2.7 °C 22.4 °F /  -5.3 °C 29.61in /  1002.6hPa West 3.0mph /  4.8km/h 3.0mph /  4.8km/h 82% 0.00in /  0mm 0 W/m2
01:16 27.3 °F /  -2.6 °C 22.5 °F /  -5.3 °C 29.62in /  1002.9hPa WSW 3.0mph /  4.8km/h 3.0mph /  4.8km/h 82% 0.00in /  0mm 0 W/m2
01:22 27.3 °F /  -2.6 °C 22.5 °F /  -5.3 °C 29.62in /  1002.9hPa WSW 1.0mph /  1.6km/h 2.0mph /  3.2km/h 82% 0.00in /  0mm 0 W/m2
01:28 27.3 °F /  -2.6 °C 22.8 °F /  -5.1 °C 29.61in /  1002.6hPa West 1.0mph /  1.6km/h 3.0mph /  4.8km/h 83% 0.00in /  0mm 0 W/m2
01:34 27.3 °F /  -2.6 °C 22.8 °F /  -5.1 °C 29.61in /  1002.6hPa West 2.0mph /  3.2km/h 3.0mph /  4.8km/h 83% 0.00in /  0mm 0 W/m2
01:40 27.3 °F /  -2.6 °C 22.8 °F /  -5.1 °C 29.61in /  1002.6hPa West 2.0mph /  3.2km/h 2.0mph /  3.2km/h 83% 0.00in /  0mm 0 W/m2
01:46 27.3 °F /  -2.6 °C 22.8 °F /  -5.1 °C 29.61in /  1002.6hPa WSW 2.0mph /  3.2km/h 4.0mph /  6.4km/h 83% 0.00in /  0mm 0 W/m2
01:52 27.3 °F /  -2.6 °C 22.8 °F /  -5.1 °C 29.61in /  1002.6hPa SW 2.0mph /  3.2km/h 2.0mph /  3.2km/h 83% 0.00in /  0mm 0 W/m2
01:58 27.3 °F /  -2.6 °C 23.1 °F /  -4.9 °C 29.60in /  1002.3hPa WSW 2.0mph /  3.2km/h 2.0mph /  3.2km/h 84% 0.00in /  0mm 0 W/m2
02:04 27.2 °F /  -2.7 °C 23.0 °F /  -5 °C 29.60in /  1002.3hPa WSW 2.0mph /  3.2km/h 3.0mph /  4.8km/h 84% 0.00in /  0mm 0 W/m2
02:10 27.2 °F /  -2.7 °C 23.0 °F /  -5 °C 29.60in /  1002.3hPa SW 2.0mph /  3.2km/h 2.0mph /  3.2km/h 84% 0.00in /  0mm 0 W/m2
02:16 27.2 °F /  -2.7 °C 23.3 °F /  -4.8 °C 29.60in /  1002.3hPa WSW 2.0mph /  3.2km/h 4.0mph /  6.4km/h 85% 0.00in /  0mm 0 W/m2
02:22 27.1 °F /  -2.7 °C 23.2 °F /  -4.9 °C 29.60in /  1002.3hPa West 2.0mph /  3.2km/h 2.0mph /  3.2km/h 85% 0.00in /  0mm 0 W/m2
02:28 27.0 °F /  -2.8 °C 23.4 °F /  -4.8 °C 29.60in /  1002.3hPa WSW 2.0mph /  3.2km/h 4.0mph /  6.4km/h 86% 0.00in /  0mm 0 W/m2
02:34 27.0 °F /  -2.8 °C 23.4 °F /  -4.8 °C 29.60in /  1002.3hPa West 2.0mph /  3.2km/h 5.0mph /  8km/h 86% 0.00in /  0mm 0 W/m2
02:40 27.1 °F /  -2.7 °C 23.5 °F /  -4.7 °C 29.60in /  1002.3hPa West 2.0mph /  3.2km/h 2.0mph /  3.2km/h 86% 0.00in /  0mm 0 W/m2
02:46 27.1 °F /  -2.7 °C 23.5 °F /  -4.7 °C 29.60in /  1002.3hPa West 1.0mph /  1.6km/h 2.0mph /  3.2km/h 86% 0.00in /  0mm 0 W/m2
02:52 27.1 °F /  -2.7 °C 23.5 °F /  -4.7 °C 29.60in /  1002.3hPa West 1.0mph /  1.6km/h 1.0mph /  1.6km/h 86% 0.00in /  0mm 0 W/m2
02:58 27.1 °F /  -2.7 °C 23.5 °F /  -4.7 °C 29.59in /  1001.9hPa SW 1.0mph /  1.6km/h 2.0mph /  3.2km/h 86% 0.00in /  0mm 0 W/m2
03:04 27.2 °F /  -2.7 °C 23.6 °F /  -4.7 °C 29.59in /  1001.9hPa WSW 2.0mph /  3.2km/h 2.0mph /  3.2km/h 86% 0.00in /  0mm 0 W/m2
03:10 27.3 °F /  -2.6 °C 23.7 °F /  -4.6 °C 29.59in /  1001.9hPa WSW 3.0mph /  4.8km/h 3.0mph /  4.8km/h 86% 0.00in /  0mm 0 W/m2
03:16 27.3 °F /  -2.6 °C 23.7 °F /  -4.6 °C 29.59in /  1001.9hPa West 3.0mph /  4.8km/h 3.0mph /  4.8km/h 86% 0.00in /  0mm 0 W/m2
03:22 27.4 °F /  -2.6 °C 23.8 °F /  -4.6 °C 29.60in /  1002.3hPa West 2.0mph /  3.2km/h 2.0mph /  3.2km/h 86% 0.00in /  0mm 0 W/m2
03:28 27.4 °F /  -2.6 °C 23.8 °F /  -4.6 °C 29.60in /  1002.3hPa WSW 2.0mph /  3.2km/h 5.0mph /  8km/h 86% 0.00in /  0mm 0 W/m2
03:34 27.3 °F /  -2.6 °C 23.7 °F /  -4.6 °C 29.60in /  1002.3hPa WSW 3.0mph /  4.8km/h 3.0mph /  4.8km/h 86% 0.00in /  0mm 0 W/m2
03:40 27.3 °F /  -2.6 °C 23.7 °F /  -4.6 °C 29.60in /  1002.3hPa West 2.0mph /  3.2km/h 4.0mph /  6.4km/h 86% 0.00in /  0mm 0 W/m2
03:46 27.2 °F /  -2.7 °C 23.6 °F /  -4.7 °C 29.59in /  1001.9hPa WSW 2.0mph /  3.2km/h 4.0mph /  6.4km/h 86% 0.00in /  0mm 0 W/m2
03:52 27.2 °F /  -2.7 °C 23.8 °F /  -4.6 °C 29.59in /  1001.9hPa WSW 3.0mph /  4.8km/h 5.0mph /  8km/h 87% 0.00in /  0mm 0 W/m2
03:58 27.2 °F /  -2.7 °C 23.8 °F /  -4.6 °C 29.59in /  1001.9hPa WSW 3.0mph /  4.8km/h 6.0mph /  9.7km/h 87% 0.00in /  0mm 0 W/m2
04:04 27.1 °F /  -2.7 °C 23.7 °F /  -4.6 °C 29.60in /  1002.3hPa WSW 3.0mph /  4.8km/h 5.0mph /  8km/h 87% 0.00in /  0mm 0 W/m2
04:10 27.0 °F /  -2.8 °C 23.9 °F /  -4.5 °C 29.60in /  1002.3hPa WSW 3.0mph /  4.8km/h 5.0mph /  8km/h 88% 0.00in /  0mm 0 W/m2
04:16 27.0 °F /  -2.8 °C 23.9 °F /  -4.5 °C 29.60in /  1002.3hPa West 3.0mph /  4.8km/h 5.0mph /  8km/h 88% 0.00in /  0mm 0 W/m2
04:22 27.0 °F /  -2.8 °C 23.9 °F /  -4.5 °C 29.60in /  1002.3hPa WSW 3.0mph /  4.8km/h 3.0mph /  4.8km/h 88% 0.00in /  0mm 0 W/m2
04:28 26.9 °F /  -2.8 °C 23.8 °F /  -4.6 °C 29.60in /  1002.3hPa WSW 3.0mph /  4.8km/h 3.0mph /  4.8km/h 88% 0.00in /  0mm 0 W/m2
04:34 27.0 °F /  -2.8 °C 23.9 °F /  -4.5 °C 29.60in /  1002.3hPa SW 3.0mph /  4.8km/h 6.0mph /  9.7km/h 88% 0.00in /  0mm 0 W/m2
04:40 27.0 °F /  -2.8 °C 23.9 °F /  -4.5 °C 29.60in /  1002.3hPa West 3.0mph /  4.8km/h 3.0mph /  4.8km/h 88% 0.00in /  0mm 0 W/m2
04:46 27.1 °F /  -2.7 °C 24.0 °F /  -4.4 °C 29.59in /  1001.9hPa SSW 3.0mph /  4.8km/h 4.0mph /  6.4km/h 88% 0.00in /  0mm 0 W/m2
04:52 27.1 °F /  -2.7 °C 24.0 °F /  -4.4 °C 29.59in /  1001.9hPa SW 4.0mph /  6.4km/h 7.0mph /  11.3km/h 88% 0.00in /  0mm 0 W/m2
04:58 27.2 °F /  -2.7 °C 24.1 °F /  -4.4 °C 29.59in /  1001.9hPa WSW 4.0mph /  6.4km/h 7.0mph /  11.3km/h 88% 0.00in /  0mm 0 W/m2
05:04 27.2 °F /  -2.7 °C 24.1 °F /  -4.4 °C 29.59in /  1001.9hPa West 3.0mph /  4.8km/h 4.0mph /  6.4km/h 88% 0.00in /  0mm 0 W/m2
05:10 27.2 °F /  -2.7 °C 24.1 °F /  -4.4 °C 29.59in /  1001.9hPa West 4.0mph /  6.4km/h 6.0mph /  9.7km/h 88% 0.00in /  0mm 0 W/m2
05:16 27.3 °F /  -2.6 °C 24.2 °F /  -4.3 °C 29.59in /  1001.9hPa SW 3.0mph /  4.8km/h 6.0mph /  9.7km/h 88% 0.00in /  0mm 0 W/m2
05:22 27.2 °F /  -2.7 °C 24.1 °F /  -4.4 °C 29.60in /  1002.3hPa West 3.0mph /  4.8km/h 8.0mph /  12.9km/h 88% 0.00in /  0mm 0 W/m2
05:28 27.2 °F /  -2.7 °C 24.1 °F /  -4.4 °C 29.60in /  1002.3hPa West 3.0mph /  4.8km/h 8.0mph /  12.9km/h 88% 0.00in /  0mm 0 W/m2
05:34 27.2 °F /  -2.7 °C 24.1 °F /  -4.4 °C 29.59in /  1001.9hPa SW 3.0mph /  4.8km/h 3.0mph /  4.8km/h 88% 0.00in /  0mm 0 W/m2
05:40 27.2 °F /  -2.7 °C 24.1 °F /  -4.4 °C 29.60in /  1002.3hPa WSW 4.0mph /  6.4km/h 4.0mph /  6.4km/h 88% 0.00in /  0mm 0 W/m2
05:46 27.1 °F /  -2.7 °C 24.0 °F /  -4.4 °C 29.59in /  1001.9hPa West 3.0mph /  4.8km/h 5.0mph /  8km/h 88% 0.00in /  0mm 0 W/m2
05:52 27.1 °F /  -2.7 °C 24.0 °F /  -4.4 °C 29.60in /  1002.3hPa West 3.0mph /  4.8km/h 3.0mph /  4.8km/h 88% 0.00in /  0mm 0 W/m2
05:58 27.1 °F /  -2.7 °C 24.0 °F /  -4.4 °C 29.60in /  1002.3hPa WSW 4.0mph /  6.4km/h 9.0mph /  14.5km/h 88% 0.00in /  0mm 0 W/m2
06:04 27.1 °F /  -2.7 °C 24.0 °F /  -4.4 °C 29.60in /  1002.3hPa West 4.0mph /  6.4km/h 5.0mph /  8km/h 88% 0.00in /  0mm 0 W/m2
06:10 27.1 °F /  -2.7 °C 24.0 °F /  -4.4 °C 29.60in /  1002.3hPa West 3.0mph /  4.8km/h 4.0mph /  6.4km/h 88% 0.00in /  0mm 0 W/m2
06:16 27.1 °F /  -2.7 °C 24.0 °F /  -4.4 °C 29.60in /  1002.3hPa SW 3.0mph /  4.8km/h 5.0mph /  8km/h 88% 0.00in /  0mm 0 W/m2
06:22 27.1 °F /  -2.7 °C 24.0 °F /  -4.4 °C 29.60in /  1002.3hPa WSW 3.0mph /  4.8km/h 3.0mph /  4.8km/h 88% 0.00in /  0mm 0 W/m2
06:28 27.1 °F /  -2.7 °C 24.0 °F /  -4.4 °C 29.60in /  1002.3hPa SW 3.0mph /  4.8km/h 5.0mph /  8km/h 88% 0.00in /  0mm 0 W/m2
06:34 27.1 °F /  -2.7 °C 24.0 °F /  -4.4 °C 29.60in /  1002.3hPa West 3.0mph /  4.8km/h 4.0mph /  6.4km/h 88% 0.00in /  0mm 5 W/m2
06:40 27.1 °F /  -2.7 °C 24.0 °F /  -4.4 °C 29.60in /  1002.3hPa West 3.0mph /  4.8km/h 4.0mph /  6.4km/h 88% 0.00in /  0mm 11 W/m2
06:46 27.2 °F /  -2.7 °C 24.1 °F /  -4.4 °C 29.60in /  1002.3hPa West 3.0mph /  4.8km/h 4.0mph /  6.4km/h 88% 0.00in /  0mm 18 W/m2
06:52 27.2 °F /  -2.7 °C 24.4 °F /  -4.2 °C 29.60in /  1002.3hPa SW 2.0mph /  3.2km/h 3.0mph /  4.8km/h 89% 0.00in /  0mm 19 W/m2
06:58 27.3 °F /  -2.6 °C 24.5 °F /  -4.2 °C 29.60in /  1002.3hPa West 2.0mph /  3.2km/h 4.0mph /  6.4km/h 89% 0.00in /  0mm 25 W/m2
07:04 27.3 °F /  -2.6 °C 24.5 °F /  -4.2 °C 29.60in /  1002.3hPa WSW 3.0mph /  4.8km/h 8.0mph /  12.9km/h 89% 0.00in /  0mm 37 W/m2
07:10 27.4 °F /  -2.6 °C 24.6 °F /  -4.1 °C 29.60in /  1002.3hPa WSW 2.0mph /  3.2km/h 3.0mph /  4.8km/h 89% 0.00in /  0mm 47 W/m2
07:16 27.6 °F /  -2.4 °C 24.8 °F /  -4 °C 29.60in /  1002.3hPa WSW 3.0mph /  4.8km/h 4.0mph /  6.4km/h 89% 0.00in /  0mm 60 W/m2
07:22 27.7 °F /  -2.4 °C 24.9 °F /  -3.9 °C 29.61in /  1002.6hPa SW 4.0mph /  6.4km/h 6.0mph /  9.7km/h 89% 0.00in /  0mm 65 W/m2
07:28 27.8 °F /  -2.3 °C 25.0 °F /  -3.9 °C 29.60in /  1002.3hPa WSW 4.0mph /  6.4km/h 7.0mph /  11.3km/h 89% 0.00in /  0mm 74 W/m2
07:34 28.0 °F /  -2.2 °C 25.2 °F /  -3.8 °C 29.60in /  1002.3hPa West 3.0mph /  4.8km/h 6.0mph /  9.7km/h 89% 0.00in /  0mm 79 W/m2
07:40 28.1 °F /  -2.2 °C 25.3 °F /  -3.7 °C 29.60in /  1002.3hPa SW 4.0mph /  6.4km/h 4.0mph /  6.4km/h 89% 0.00in /  0mm 76 W/m2
07:46 28.2 °F /  -2.1 °C 25.4 °F /  -3.7 °C 29.60in /  1002.3hPa West 3.0mph /  4.8km/h 5.0mph /  8km/h 89% 0.00in /  0mm 63 W/m2
07:52 28.2 °F /  -2.1 °C 25.6 °F /  -3.6 °C 29.60in /  1002.3hPa WSW 3.0mph /  4.8km/h 4.0mph /  6.4km/h 90% 0.00in /  0mm 76 W/m2
07:58 28.2 °F /  -2.1 °C 25.6 °F /  -3.6 °C 29.61in /  1002.6hPa WSW 4.0mph /  6.4km/h 5.0mph /  8km/h 90% 0.00in /  0mm 86 W/m2
08:04 28.2 °F /  -2.1 °C 25.6 °F /  -3.6 °C 29.61in /  1002.6hPa WSW 4.0mph /  6.4km/h 5.0mph /  8km/h 90% 0.00in /  0mm 113 W/m2
08:10 28.4 °F /  -2 °C 25.8 °F /  -3.4 °C 29.60in /  1002.3hPa West 4.0mph /  6.4km/h 4.0mph /  6.4km/h 90% 0.00in /  0mm 116 W/m2
08:16 28.4 °F /  -2 °C 25.8 °F /  -3.4 °C 29.60in /  1002.3hPa WSW 4.0mph /  6.4km/h 5.0mph /  8km/h 90% 0.00in /  0mm 84 W/m2
08:22 28.4 °F /  -2 °C 25.8 °F /  -3.4 °C 29.60in /  1002.3hPa SW 4.0mph /  6.4km/h 4.0mph /  6.4km/h 90% 0.00in /  0mm 77 W/m2
08:28 28.5 °F /  -1.9 °C 25.9 °F /  -3.4 °C 29.61in /  1002.6hPa SW 3.0mph /  4.8km/h 5.0mph /  8km/h 90% 0.00in /  0mm 97 W/m2
08:34 28.6 °F /  -1.9 °C 26.0 °F /  -3.3 °C 29.61in /  1002.6hPa West 3.0mph /  4.8km/h 3.0mph /  4.8km/h 90% 0.00in /  0mm 53 W/m2
08:40 28.6 °F /  -1.9 °C 26.3 °F /  -3.2 °C 29.61in /  1002.6hPa West 4.0mph /  6.4km/h 4.0mph /  6.4km/h 91% 0.00in /  0mm 70 W/m2
08:46 28.7 °F /  -1.8 °C 26.4 °F /  -3.1 °C 29.61in /  1002.6hPa WNW 3.0mph /  4.8km/h 4.0mph /  6.4km/h 91% 0.00in /  0mm 72 W/m2
08:52 28.9 °F /  -1.7 °C 26.6 °F /  -3 °C 29.61in /  1002.6hPa West 3.0mph /  4.8km/h 7.0mph /  11.3km/h 91% 0.00in /  0mm 95 W/m2
08:58 29.0 °F /  -1.7 °C 26.7 °F /  -2.9 °C 29.61in /  1002.6hPa WSW 3.0mph /  4.8km/h 7.0mph /  11.3km/h 91% 0.00in /  0mm 74 W/m2
09:04 29.1 °F /  -1.6 °C 26.8 °F /  -2.9 °C 29.61in /  1002.6hPa WSW 3.0mph /  4.8km/h 3.0mph /  4.8km/h 91% 0.00in /  0mm 76 W/m2
09:10 29.2 °F /  -1.6 °C 26.9 °F /  -2.8 °C 29.61in /  1002.6hPa WSW 2.0mph /  3.2km/h 5.0mph /  8km/h 91% 0.00in /  0mm 100 W/m2
09:16 29.4 °F /  -1.4 °C 27.1 °F /  -2.7 °C 29.62in /  1002.9hPa WSW 3.0mph /  4.8km/h 5.0mph /  8km/h 91% 0.00in /  0mm 104 W/m2
09:22 29.5 °F /  -1.4 °C 27.2 °F /  -2.7 °C 29.62in /  1002.9hPa WSW 4.0mph /  6.4km/h 4.0mph /  6.4km/h 91% 0.00in /  0mm 83 W/m2
09:28 29.7 °F /  -1.3 °C 27.4 °F /  -2.6 °C 29.62in /  1002.9hPa WSW 3.0mph /  4.8km/h 4.0mph /  6.4km/h 91% 0.00in /  0mm 74 W/m2
09:34 29.8 °F /  -1.2 °C 27.5 °F /  -2.5 °C 29.62in /  1002.9hPa WSW 2.0mph /  3.2km/h 3.0mph /  4.8km/h 91% 0.00in /  0mm 47 W/m2
09:40 29.9 °F /  -1.2 °C 27.6 °F /  -2.4 °C 29.62in /  1002.9hPa SW 2.0mph /  3.2km/h 2.0mph /  3.2km/h 91% 0.00in /  0mm 56 W/m2
09:46 30.1 °F /  -1.1 °C 28.1 °F /  -2.2 °C 29.62in /  1002.9hPa WSW 2.0mph /  3.2km/h 2.0mph /  3.2km/h 92% 0.00in /  0mm 63 W/m2
09:52 30.3 °F /  -0.9 °C 28.3 °F /  -2.1 °C 29.62in /  1002.9hPa WNW 2.0mph /  3.2km/h 5.0mph /  8km/h 92% 0.00in /  0mm 46 W/m2
09:58 30.5 °F /  -0.8 °C 28.5 °F /  -1.9 °C 29.62in /  1002.9hPa NW 3.0mph /  4.8km/h 5.0mph /  8km/h 92% 0.00in /  0mm 33 W/m2
10:04 30.6 °F /  -0.8 °C 28.6 °F /  -1.9 °C 29.62in /  1002.9hPa WNW 2.0mph /  3.2km/h 3.0mph /  4.8km/h 92% 0.00in /  0mm 32 W/m2
10:10 30.8 °F /  -0.7 °C 28.8 °F /  -1.8 °C 29.62in /  1002.9hPa WNW 2.0mph /  3.2km/h 6.0mph /  9.7km/h 92% 0.00in /  0mm 35 W/m2
10:16 30.8 °F /  -0.7 °C 28.8 °F /  -1.8 °C 29.62in /  1002.9hPa West 4.0mph /  6.4km/h 6.0mph /  9.7km/h 92% 0.00in /  0mm 105 W/m2
10:22 31.9 °F /  -0.1 °C 29.8 °F /  -1.2 °C 29.62in /  1002.9hPa WNW 4.0mph /  6.4km/h 5.0mph /  8km/h 92% 0.00in /  0mm 336 W/m2
10:28 32.3 °F /  0.2 °C 30.2 °F /  -1 °C 29.62in /  1002.9hPa WNW 4.0mph /  6.4km/h 5.0mph /  8km/h 92% 0.00in /  0mm 213 W/m2
10:34 32.3 °F /  0.2 °C 30.0 °F /  -1.1 °C 29.62in /  1002.9hPa WNW 4.0mph /  6.4km/h 8.0mph /  12.9km/h 91% 0.00in /  0mm 531 W/m2
10:40 32.4 °F /  0.2 °C 29.5 °F /  -1.4 °C 29.62in /  1002.9hPa WNW 5.0mph /  8km/h 5.0mph /  8km/h 89% 0.00in /  0mm 223 W/m2
10:46 33.0 °F /  0.6 °C 29.8 °F /  -1.2 °C 29.62in /  1002.9hPa West 4.0mph /  6.4km/h 5.0mph /  8km/h 88% 0.00in /  0mm 306 W/m2
10:52 33.7 °F /  0.9 °C 30.0 °F /  -1.1 °C 29.62in /  1002.9hPa West 4.0mph /  6.4km/h 5.0mph /  8km/h 86% 0.28in /  7.11mm 388 W/m2
10:58 33.9 °F /  1.1 °C 29.6 °F /  -1.3 °C 29.62in /  1002.9hPa WSW 5.0mph /  8km/h 7.0mph /  11.3km/h 84% 0.17in /  4.32mm 786 W/m2
11:04 33.5 °F /  0.8 °C 28.3 °F /  -2.1 °C 29.62in /  1002.9hPa WNW 6.0mph /  9.7km/h 9.0mph /  14.5km/h 81% 0.14in /  3.56mm 299 W/m2
11:10 33.8 °F /  1 °C 28.6 °F /  -1.9 °C 29.62in /  1002.9hPa WNW 5.0mph /  8km/h 5.0mph /  8km/h 81% 0.13in /  3.3mm 281 W/m2
11:16 33.7 °F /  0.9 °C 28.2 °F /  -2.1 °C 29.62in /  1002.9hPa WSW 5.0mph /  8km/h 8.0mph /  12.9km/h 80% 0.10in /  2.54mm 461 W/m2
11:22 34.1 °F /  1.2 °C 27.6 °F /  -2.4 °C 29.62in /  1002.9hPa WNW 6.0mph /  9.7km/h 6.0mph /  9.7km/h 77% 0.09in /  2.29mm 642 W/m2
11:28 33.9 °F /  1.1 °C 27.1 °F /  -2.7 °C 29.62in /  1002.9hPa West 6.0mph /  9.7km/h 7.0mph /  11.3km/h 76% 0.07in /  1.78mm 200 W/m2
11:34 33.4 °F /  0.8 °C 27.0 °F /  -2.8 °C 29.63in /  1003.3hPa WNW 6.0mph /  9.7km/h 8.0mph /  12.9km/h 77% 0.07in /  1.78mm 272 W/m2
11:40 33.3 °F /  0.7 °C 27.2 °F /  -2.7 °C 29.63in /  1003.3hPa WNW 5.0mph /  8km/h 5.0mph /  8km/h 78% 0.05in /  1.27mm 193 W/m2
11:46 33.7 °F /  0.9 °C 27.3 °F /  -2.6 °C 29.63in /  1003.3hPa NW 5.0mph /  8km/h 6.0mph /  9.7km/h 77% 0.00in /  0mm 388 W/m2
11:52 33.8 °F /  1 °C 27.0 °F /  -2.8 °C 29.63in /  1003.3hPa NW 5.0mph /  8km/h 7.0mph /  11.3km/h 76% 0.00in /  0mm 239 W/m2
11:58 33.4 °F /  0.8 °C 27.0 °F /  -2.8 °C 29.64in /  1003.6hPa WNW 6.0mph /  9.7km/h 7.0mph /  11.3km/h 77% 0.00in /  0mm 188 W/m2
12:04 33.0 °F /  0.6 °C 27.5 °F /  -2.5 °C 29.64in /  1003.6hPa NW 6.0mph /  9.7km/h 7.0mph /  11.3km/h 80% 0.00in /  0mm 346 W/m2
12:10 34.3 °F /  1.3 °C 28.2 °F /  -2.1 °C 29.63in /  1003.3hPa West 5.0mph /  8km/h 10.0mph /  16.1km/h 78% 0.00in /  0mm 789 W/m2
12:16 35.6 °F /  2 °C 27.8 °F /  -2.3 °C 29.63in /  1003.3hPa NW 4.0mph /  6.4km/h 10.0mph /  16.1km/h 73% 0.07in /  1.78mm 898 W/m2
12:22 35.3 °F /  1.8 °C 27.5 °F /  -2.5 °C 29.63in /  1003.3hPa NW 4.0mph /  6.4km/h 5.0mph /  8km/h 73% 0.07in /  1.78mm 237 W/m2
12:28 33.8 °F /  1 °C 27.0 °F /  -2.8 °C 29.63in /  1003.3hPa West 5.0mph /  8km/h 6.0mph /  9.7km/h 76% 0.05in /  1.27mm 232 W/m2
12:34 33.4 °F /  0.8 °C 27.0 °F /  -2.8 °C 29.63in /  1003.3hPa West 5.0mph /  8km/h 8.0mph /  12.9km/h 77% 0.00in /  0mm 200 W/m2
12:40 33.6 °F /  0.9 °C 26.5 °F /  -3.1 °C 29.63in /  1003.3hPa WNW 5.0mph /  8km/h 5.0mph /  8km/h 75% 0.00in /  0mm 253 W/m2
12:46 34.5 °F /  1.4 °C 26.7 °F /  -2.9 °C 29.63in /  1003.3hPa WNW 6.0mph /  9.7km/h 8.0mph /  12.9km/h 73% 0.00in /  0mm 367 W/m2
12:52 33.9 °F /  1.1 °C 26.5 °F /  -3.1 °C 29.64in /  1003.6hPa WNW 6.0mph /  9.7km/h 15.0mph /  24.1km/h 74% 0.00in /  0mm 214 W/m2
12:58 33.9 °F /  1.1 °C 26.5 °F /  -3.1 °C 29.64in /  1003.6hPa West 7.0mph /  11.3km/h 15.0mph /  24.1km/h 74% 0.00in /  0mm 390 W/m2
13:04 33.8 °F /  1 °C 26.4 °F /  -3.1 °C 29.64in /  1003.6hPa WNW 7.0mph /  11.3km/h 10.0mph /  16.1km/h 74% 0.00in /  0mm 276 W/m2
13:10 33.8 °F /  1 °C 27.0 °F /  -2.8 °C 29.64in /  1003.6hPa WNW 6.0mph /  9.7km/h 9.0mph /  14.5km/h 76% 0.00in /  0mm 146 W/m2
13:16 33.7 °F /  0.9 °C 27.3 °F /  -2.6 °C 29.64in /  1003.6hPa WNW 5.0mph /  8km/h 9.0mph /  14.5km/h 77% 0.00in /  0mm 380 W/m2
13:22 34.3 °F /  1.3 °C 26.9 °F /  -2.8 °C 29.64in /  1003.6hPa WNW 5.0mph /  8km/h 6.0mph /  9.7km/h 74% 0.00in /  0mm 243 W/m2
13:28 34.1 °F /  1.2 °C 27.0 °F /  -2.8 °C 29.65in /  1003.9hPa WNW 5.0mph /  8km/h 9.0mph /  14.5km/h 75% 0.00in /  0mm 114 W/m2
13:34 33.0 °F /  0.6 °C 27.2 °F /  -2.7 °C 29.65in /  1003.9hPa WNW 5.0mph /  8km/h 6.0mph /  9.7km/h 79% 0.00in /  0mm 301 W/m2
13:40 33.4 °F /  0.8 °C 27.6 °F /  -2.4 °C 29.65in /  1003.9hPa WNW 5.0mph /  8km/h 5.0mph /  8km/h 79% 0.00in /  0mm 469 W/m2
13:46 34.4 °F /  1.3 °C 27.0 °F /  -2.8 °C 29.64in /  1003.6hPa WNW 5.0mph /  8km/h 9.0mph /  14.5km/h 74% 0.00in /  0mm 420 W/m2
13:52 34.9 °F /  1.6 °C 26.4 °F /  -3.1 °C 29.65in /  1003.9hPa NW 6.0mph /  9.7km/h 8.0mph /  12.9km/h 71% 0.00in /  0mm 696 W/m2
13:58 35.4 °F /  1.9 °C 26.2 °F /  -3.2 °C 29.65in /  1003.9hPa NNW 6.0mph /  9.7km/h 11.0mph /  17.7km/h 69% 0.00in /  0mm 733 W/m2
14:06 35.0 °F /  1.7 °C 26.2 °F /  -3.2 °C 29.65in /  1003.9hPa NW 7.0mph /  11.3km/h 7.0mph /  11.3km/h 70% 0.00in /  0mm 334 W/m2
14:12 35.9 °F /  2.2 °C 26.7 °F /  -2.9 °C 29.65in /  1003.9hPa West 6.0mph /  9.7km/h 6.0mph /  9.7km/h 69% 0.00in /  0mm 773 W/m2
14:18 35.9 °F /  2.2 °C 26.7 °F /  -2.9 °C 29.65in /  1003.9hPa North 6.0mph /  9.7km/h 6.0mph /  9.7km/h 69% 0.00in /  0mm 304 W/m2
14:26 35.5 °F /  1.9 °C 25.6 °F /  -3.6 °C 29.65in /  1003.9hPa West 7.0mph /  11.3km/h 11.0mph /  17.7km/h 67% 0.00in /  0mm 476 W/m2
14:32 35.4 °F /  1.9 °C 25.9 °F /  -3.4 °C 29.65in /  1003.9hPa West 7.0mph /  11.3km/h 7.0mph /  11.3km/h 68% 0.00in /  0mm 209 W/m2
14:38 34.9 °F /  1.6 °C 26.1 °F /  -3.3 °C 29.65in /  1003.9hPa West 5.0mph /  8km/h 7.0mph /  11.3km/h 70% 0.00in /  0mm 190 W/m2
14:44 34.9 °F /  1.6 °C 26.1 °F /  -3.3 °C 29.65in /  1003.9hPa WNW 5.0mph /  8km/h 6.0mph /  9.7km/h 70% 0.00in /  0mm 192 W/m2
14:50 34.9 °F /  1.6 °C 25.8 °F /  -3.4 °C 29.65in /  1003.9hPa NW 5.0mph /  8km/h 6.0mph /  9.7km/h 69% 0.00in /  0mm 128 W/m2
14:56 34.8 °F /  1.6 °C 25.3 °F /  -3.7 °C 29.66in /  1004.3hPa WNW 6.0mph /  9.7km/h 10.0mph /  16.1km/h 68% 0.00in /  0mm 301 W/m2
15:02 35.0 °F /  1.7 °C 25.5 °F /  -3.6 °C 29.66in /  1004.3hPa West 6.0mph /  9.7km/h 8.0mph /  12.9km/h 68% 0.00in /  0mm 185 W/m2
15:08 35.1 °F /  1.7 °C 25.6 °F /  -3.6 °C 29.65in /  1003.9hPa West 5.0mph /  8km/h 8.0mph /  12.9km/h 68% 0.00in /  0mm 179 W/m2
15:16 35.4 °F /  1.9 °C 25.5 °F /  -3.6 °C 29.66in /  1004.3hPa West 5.0mph /  8km/h 10.0mph /  16.1km/h 67% 0.00in /  0mm 452 W/m2
15:24 35.8 °F /  2.1 °C 25.5 °F /  -3.6 °C 29.67in /  1004.6hPa West 7.0mph /  11.3km/h 7.0mph /  11.3km/h 66% 0.00in /  0mm 220 W/m2
15:30 35.7 °F /  2.1 °C 24.7 °F /  -4.1 °C 29.67in /  1004.6hPa WSW 6.0mph /  9.7km/h 10.0mph /  16.1km/h 64% 0.00in /  0mm 216 W/m2
15:36 35.4 °F /  1.9 °C 24.4 °F /  -4.2 °C 29.67in /  1004.6hPa NW 7.0mph /  11.3km/h 10.0mph /  16.1km/h 64% 0.00in /  0mm 255 W/m2
15:42 35.5 °F /  1.9 °C 24.5 °F /  -4.2 °C 29.67in /  1004.6hPa West 6.0mph /  9.7km/h 7.0mph /  11.3km/h 64% 0.00in /  0mm 181 W/m2
15:48 35.4 °F /  1.9 °C 24.4 °F /  -4.2 °C 29.67in /  1004.6hPa West 6.0mph /  9.7km/h 8.0mph /  12.9km/h 64% 0.00in /  0mm 181 W/m2
15:54 35.4 °F /  1.9 °C 24.8 °F /  -4 °C 29.67in /  1004.6hPa WSW 6.0mph /  9.7km/h 7.0mph /  11.3km/h 65% 0.00in /  0mm 176 W/m2
16:00 35.4 °F /  1.9 °C 25.2 °F /  -3.8 °C 29.67in /  1004.6hPa West 6.0mph /  9.7km/h 6.0mph /  9.7km/h 66% 0.00in /  0mm 163 W/m2
16:06 35.4 °F /  1.9 °C 25.2 °F /  -3.8 °C 29.68in /  1005hPa WNW 7.0mph /  11.3km/h 16.0mph /  25.7km/h 66% 0.00in /  0mm 155 W/m2
16:12 35.2 °F /  1.8 °C 25.0 °F /  -3.9 °C 29.68in /  1005hPa WNW 7.0mph /  11.3km/h 7.0mph /  11.3km/h 66% 0.00in /  0mm 118 W/m2
16:18 35.1 °F /  1.7 °C 25.6 °F /  -3.6 °C 29.68in /  1005hPa WNW 5.0mph /  8km/h 7.0mph /  11.3km/h 68% 0.00in /  0mm 69 W/m2
16:24 34.8 °F /  1.6 °C 26.0 °F /  -3.3 °C 29.68in /  1005hPa West 5.0mph /  8km/h 7.0mph /  11.3km/h 70% 0.00in /  0mm 81 W/m2
16:30 34.1 °F /  1.2 °C 26.3 °F /  -3.2 °C 29.69in /  1005.3hPa WNW 7.0mph /  11.3km/h 7.0mph /  11.3km/h 73% 0.00in /  0mm 84 W/m2
16:36 33.7 °F /  0.9 °C 26.6 °F /  -3 °C 29.69in /  1005.3hPa WNW 6.0mph /  9.7km/h 7.0mph /  11.3km/h 75% 0.00in /  0mm 88 W/m2
16:42 33.5 °F /  0.8 °C 27.1 °F /  -2.7 °C 29.70in /  1005.6hPa WNW 5.0mph /  8km/h 12.0mph /  19.3km/h 77% 0.00in /  0mm 74 W/m2
16:48 33.5 °F /  0.8 °C 27.1 °F /  -2.7 °C 29.70in /  1005.6hPa NW 5.0mph /  8km/h 12.0mph /  19.3km/h 77% 0.00in /  0mm 81 W/m2
16:54 33.6 °F /  0.9 °C 27.2 °F /  -2.7 °C 29.70in /  1005.6hPa West 5.0mph /  8km/h 5.0mph /  8km/h 77% 0.00in /  0mm 74 W/m2
17:00 33.7 °F /  0.9 °C 27.3 °F /  -2.6 °C 29.70in /  1005.6hPa West 3.0mph /  4.8km/h 6.0mph /  9.7km/h 77% 0.00in /  0mm 62 W/m2
17:06 33.9 °F /  1.1 °C 27.1 °F /  -2.7 °C 29.70in /  1005.6hPa WNW 3.0mph /  4.8km/h 6.0mph /  9.7km/h 76% 0.00in /  0mm 56 W/m2
17:12 34.0 °F /  1.1 °C 26.6 °F /  -3 °C 29.70in /  1005.6hPa West 5.0mph /  8km/h 8.0mph /  12.9km/h 74% 0.00in /  0mm 44 W/m2
17:18 34.0 °F /  1.1 °C 26.3 °F /  -3.2 °C 29.71in /  1006hPa WNW 6.0mph /  9.7km/h 9.0mph /  14.5km/h 73% 0.00in /  0mm 37 W/m2
17:24 33.9 °F /  1.1 °C 26.2 °F /  -3.2 °C 29.71in /  1006hPa WNW 5.0mph /  8km/h 7.0mph /  11.3km/h 73% 0.00in /  0mm 23 W/m2
17:30 33.9 °F /  1.1 °C 26.2 °F /  -3.2 °C 29.71in /  1006hPa WNW 4.0mph /  6.4km/h 4.0mph /  6.4km/h 73% 0.00in /  0mm 19 W/m2
17:36 33.8 °F /  1 °C 26.4 °F /  -3.1 °C 29.71in /  1006hPa WNW 3.0mph /  4.8km/h 4.0mph /  6.4km/h 74% 0.00in /  0mm 23 W/m2
17:42 33.5 °F /  0.8 °C 26.4 °F /  -3.1 °C 29.71in /  1006hPa West 4.0mph /  6.4km/h 6.0mph /  9.7km/h 75% 0.00in /  0mm 19 W/m2
17:48 33.3 °F /  0.7 °C 26.5 °F /  -3.1 °C 29.71in /  1006hPa West 5.0mph /  8km/h 7.0mph /  11.3km/h 76% 0.00in /  0mm 16 W/m2
17:54 33.2 °F /  0.7 °C 26.5 °F /  -3.1 °C 29.72in /  1006.3hPa SW 5.0mph /  8km/h 5.0mph /  8km/h 76% 0.00in /  0mm 7 W/m2
18:00 33.2 °F /  0.7 °C 26.8 °F /  -2.9 °C 29.72in /  1006.3hPa West 4.0mph /  6.4km/h 6.0mph /  9.7km/h 77% 0.00in /  0mm 0 W/m2
18:06 32.9 °F /  0.5 °C 27.4 °F /  -2.6 °C 29.72in /  1006.3hPa WSW 4.0mph /  6.4km/h 6.0mph /  9.7km/h 80% 0.00in /  0mm 0 W/m2
18:12 32.6 °F /  0.3 °C 27.7 °F /  -2.4 °C 29.73in /  1006.7hPa WSW 3.0mph /  4.8km/h 4.0mph /  6.4km/h 82% 0.00in /  0mm 0 W/m2
18:18 32.4 °F /  0.2 °C 27.8 °F /  -2.3 °C 29.73in /  1006.7hPa WSW 2.0mph /  3.2km/h 4.0mph /  6.4km/h 83% 0.00in /  0mm 0 W/m2
18:24 32.3 °F /  0.2 °C 28.0 °F /  -2.2 °C 29.73in /  1006.7hPa WSW 2.0mph /  3.2km/h 3.0mph /  4.8km/h 84% 0.00in /  0mm 0 W/m2
18:30 32.2 °F /  0.1 °C 28.2 °F /  -2.1 °C 29.73in /  1006.7hPa West 2.0mph /  3.2km/h 4.0mph /  6.4km/h 85% 0.00in /  0mm 0 W/m2
18:36 32.1 °F /  0.1 °C 28.4 °F /  -2 °C 29.73in /  1006.7hPa WSW 3.0mph /  4.8km/h 5.0mph /  8km/h 86% 0.00in /  0mm 0 W/m2
18:42 32.1 °F /  0.1 °C 28.4 °F /  -2 °C 29.73in /  1006.7hPa WNW 3.0mph /  4.8km/h 5.0mph /  8km/h 86% 0.00in /  0mm 0 W/m2
18:48 31.8 °F /  -0.1 °C 28.4 °F /  -2 °C 29.74in /  1007hPa NW 3.0mph /  4.8km/h 5.0mph /  8km/h 87% 0.00in /  0mm 0 W/m2
18:54 31.2 °F /  -0.4 °C 27.8 °F /  -2.3 °C 29.74in /  1007hPa WNW 4.0mph /  6.4km/h 4.0mph /  6.4km/h 87% 0.00in /  0mm 0 W/m2
19:00 30.9 °F /  -0.6 °C 27.8 °F /  -2.3 °C 29.75in /  1007.3hPa NW 3.0mph /  4.8km/h 3.0mph /  4.8km/h 88% 0.00in /  0mm 0 W/m2
19:06 30.8 °F /  -0.7 °C 27.7 °F /  -2.4 °C 29.75in /  1007.3hPa West 4.0mph /  6.4km/h 7.0mph /  11.3km/h 88% 0.00in /  0mm 0 W/m2
19:12 30.6 °F /  -0.8 °C 27.7 °F /  -2.4 °C 29.75in /  1007.3hPa NNW 5.0mph /  8km/h 6.0mph /  9.7km/h 89% 0.00in /  0mm 0 W/m2
19:18 30.4 °F /  -0.9 °C 27.5 °F /  -2.5 °C 29.75in /  1007.3hPa West 5.0mph /  8km/h 7.0mph /  11.3km/h 89% 0.00in /  0mm 0 W/m2
19:24 30.1 °F /  -1.1 °C 27.5 °F /  -2.5 °C 29.75in /  1007.3hPa WNW 4.0mph /  6.4km/h 6.0mph /  9.7km/h 90% 0.00in /  0mm 0 W/m2
19:30 29.9 °F /  -1.2 °C 27.3 °F /  -2.6 °C 29.75in /  1007.3hPa WNW 4.0mph /  6.4km/h 4.0mph /  6.4km/h 90% 0.00in /  0mm 0 W/m2
19:36 29.9 °F /  -1.2 °C 27.3 °F /  -2.6 °C 29.75in /  1007.3hPa WNW 3.0mph /  4.8km/h 4.0mph /  6.4km/h 90% 0.00in /  0mm 0 W/m2
19:42 30.1 °F /  -1.1 °C 27.5 °F /  -2.5 °C 29.75in /  1007.3hPa West 3.0mph /  4.8km/h 3.0mph /  4.8km/h 90% 0.00in /  0mm 0 W/m2
19:48 30.3 °F /  -0.9 °C 27.7 °F /  -2.4 °C 29.75in /  1007.3hPa WSW 3.0mph /  4.8km/h 3.0mph /  4.8km/h 90% 0.00in /  0mm 0 W/m2
19:54 30.4 °F /  -0.9 °C 27.8 °F /  -2.3 °C 29.75in /  1007.3hPa WSW 2.0mph /  3.2km/h 3.0mph /  4.8km/h 90% 0.00in /  0mm 0 W/m2
20:00 30.5 °F /  -0.8 °C 27.9 °F /  -2.3 °C 29.76in /  1007.7hPa WSW 2.0mph /  3.2km/h 3.0mph /  4.8km/h 90% 0.00in /  0mm 0 W/m2
20:06 30.6 °F /  -0.8 °C 28.3 °F /  -2.1 °C 29.76in /  1007.7hPa WSW 2.0mph /  3.2km/h 3.0mph /  4.8km/h 91% 0.00in /  0mm 0 W/m2
20:12 30.7 °F /  -0.7 °C 28.4 °F /  -2 °C 29.76in /  1007.7hPa WSW 2.0mph /  3.2km/h 2.0mph /  3.2km/h 91% 0.00in /  0mm 0 W/m2
20:18 30.7 °F /  -0.7 °C 28.4 °F /  -2 °C 29.76in /  1007.7hPa West 2.0mph /  3.2km/h 2.0mph /  3.2km/h 91% 0.00in /  0mm 0 W/m2
20:24 30.7 °F /  -0.7 °C 28.4 °F /  -2 °C 29.76in /  1007.7hPa WNW 3.0mph /  4.8km/h 3.0mph /  4.8km/h 91% 0.00in /  0mm 0 W/m2
20:30 30.7 °F /  -0.7 °C 28.4 °F /  -2 °C 29.76in /  1007.7hPa WNW 3.0mph /  4.8km/h 3.0mph /  4.8km/h 91% 0.00in /  0mm 0 W/m2
20:36 30.7 °F /  -0.7 °C 28.4 °F /  -2 °C 29.76in /  1007.7hPa WNW 2.0mph /  3.2km/h 3.0mph /  4.8km/h 91% 0.00in /  0mm 0 W/m2
20:42 30.6 °F /  -0.8 °C 28.3 °F /  -2.1 °C 29.76in /  1007.7hPa WNW 3.0mph /  4.8km/h 3.0mph /  4.8km/h 91% 0.00in /  0mm 0 W/m2
20:48 30.5 °F /  -0.8 °C 28.2 °F /  -2.1 °C 29.76in /  1007.7hPa WNW 3.0mph /  4.8km/h 4.0mph /  6.4km/h 91% 0.00in /  0mm 0 W/m2
20:54 30.5 °F /  -0.8 °C 28.2 °F /  -2.1 °C 29.76in /  1007.7hPa NW 3.0mph /  4.8km/h 3.0mph /  4.8km/h 91% 0.00in /  0mm 0 W/m2
21:00 30.4 °F /  -0.9 °C 28.1 °F /  -2.2 °C 29.76in /  1007.7hPa West 3.0mph /  4.8km/h 4.0mph /  6.4km/h 91% 0.00in /  0mm 0 W/m2
21:06 30.4 °F /  -0.9 °C 28.1 °F /  -2.2 °C 29.76in /  1007.7hPa West 3.0mph /  4.8km/h 4.0mph /  6.4km/h 91% 0.00in /  0mm 0 W/m2
21:12 30.3 °F /  -0.9 °C 28.0 °F /  -2.2 °C 29.76in /  1007.7hPa WNW 4.0mph /  6.4km/h 4.0mph /  6.4km/h 91% 0.00in /  0mm 0 W/m2
21:18 30.3 °F /  -0.9 °C 28.0 °F /  -2.2 °C 29.76in /  1007.7hPa NW 3.0mph /  4.8km/h 5.0mph /  8km/h 91% 0.00in /  0mm 0 W/m2
21:24 30.3 °F /  -0.9 °C 28.0 °F /  -2.2 °C 29.77in /  1008hPa WNW 3.0mph /  4.8km/h 5.0mph /  8km/h 91% 0.00in /  0mm 0 W/m2
21:30 30.2 °F /  -1 °C 27.9 °F /  -2.3 °C 29.77in /  1008hPa West 3.0mph /  4.8km/h 3.0mph /  4.8km/h 91% 0.00in /  0mm 0 W/m2
21:36 30.2 °F /  -1 °C 27.6 °F /  -2.4 °C 29.77in /  1008hPa NW 3.0mph /  4.8km/h 4.0mph /  6.4km/h 90% 0.00in /  0mm 0 W/m2
21:42 30.3 °F /  -0.9 °C 27.7 °F /  -2.4 °C 29.77in /  1008hPa West 3.0mph /  4.8km/h 4.0mph /  6.4km/h 90% 0.00in /  0mm 0 W/m2
21:48 30.3 °F /  -0.9 °C 27.7 °F /  -2.4 °C 29.77in /  1008hPa West 4.0mph /  6.4km/h 6.0mph /  9.7km/h 90% 0.00in /  0mm 0 W/m2
21:54 30.2 °F /  -1 °C 27.6 °F /  -2.4 °C 29.78in /  1008.4hPa West 4.0mph /  6.4km/h 8.0mph /  12.9km/h 90% 0.00in /  0mm 0 W/m2
22:00 30.1 °F /  -1.1 °C 27.5 °F /  -2.5 °C 29.78in /  1008.4hPa NW 3.0mph /  4.8km/h 5.0mph /  8km/h 90% 0.00in /  0mm 0 W/m2
22:06 30.1 °F /  -1.1 °C 27.5 °F /  -2.5 °C 29.78in /  1008.4hPa NW 3.0mph /  4.8km/h 6.0mph /  9.7km/h 90% 0.00in /  0mm 0 W/m2
22:12 30.0 °F /  -1.1 °C 27.4 °F /  -2.6 °C 29.78in /  1008.4hPa WNW 3.0mph /  4.8km/h 4.0mph /  6.4km/h 90% 0.00in /  0mm 0 W/m2
22:18 30.1 °F /  -1.1 °C 27.5 °F /  -2.5 °C 29.78in /  1008.4hPa West 3.0mph /  4.8km/h 4.0mph /  6.4km/h 90% 0.00in /  0mm 0 W/m2
22:24 30.1 °F /  -1.1 °C 27.3 °F /  -2.6 °C 29.78in /  1008.4hPa West 3.0mph /  4.8km/h 4.0mph /  6.4km/h 89% 0.00in /  0mm 0 W/m2
22:30 30.1 °F /  -1.1 °C 27.3 °F /  -2.6 °C 29.78in /  1008.4hPa West 3.0mph /  4.8km/h 3.0mph /  4.8km/h 89% 0.00in /  0mm 0 W/m2
22:36 30.1 °F /  -1.1 °C 27.3 °F /  -2.6 °C 29.78in /  1008.4hPa West 3.0mph /  4.8km/h 5.0mph /  8km/h 89% 0.00in /  0mm 0 W/m2
22:42 30.1 °F /  -1.1 °C 27.3 °F /  -2.6 °C 29.78in /  1008.4hPa WNW 3.0mph /  4.8km/h 3.0mph /  4.8km/h 89% 0.00in /  0mm 0 W/m2
22:48 30.0 °F /  -1.1 °C 27.2 °F /  -2.7 °C 29.78in /  1008.4hPa WNW 3.0mph /  4.8km/h 4.0mph /  6.4km/h 89% 0.00in /  0mm 0 W/m2
22:54 30.0 °F /  -1.1 °C 27.2 °F /  -2.7 °C 29.78in /  1008.4hPa WNW 4.0mph /  6.4km/h 6.0mph /  9.7km/h 89% 0.00in /  0mm 0 W/m2
23:00 30.0 °F /  -1.1 °C 26.9 °F /  -2.8 °C 29.78in /  1008.4hPa North 3.0mph /  4.8km/h 6.0mph /  9.7km/h 88% 0.00in /  0mm 0 W/m2
23:06 30.0 °F /  -1.1 °C 26.9 °F /  -2.8 °C 29.78in /  1008.4hPa WNW 3.0mph /  4.8km/h 6.0mph /  9.7km/h 88% 0.00in /  0mm 0 W/m2
23:12 29.9 °F /  -1.2 °C 26.8 °F /  -2.9 °C 29.78in /  1008.4hPa NW 3.0mph /  4.8km/h 5.0mph /  8km/h 88% 0.00in /  0mm 0 W/m2
23:18 29.9 °F /  -1.2 °C 26.8 °F /  -2.9 °C 29.79in /  1008.7hPa WNW 3.0mph /  4.8km/h 5.0mph /  8km/h 88% 0.00in /  0mm 0 W/m2
23:24 29.8 °F /  -1.2 °C 26.7 °F /  -2.9 °C 29.78in /  1008.4hPa WNW 2.0mph /  3.2km/h 5.0mph /  8km/h 88% 0.00in /  0mm 0 W/m2
23:30 29.7 °F /  -1.3 °C 26.6 °F /  -3 °C 29.78in /  1008.4hPa NW 3.0mph /  4.8km/h 5.0mph /  8km/h 88% 0.00in /  0mm 0 W/m2
23:36 29.7 °F /  -1.3 °C 26.6 °F /  -3 °C 29.78in /  1008.4hPa WNW 2.0mph /  3.2km/h 5.0mph /  8km/h 88% 0.00in /  0mm 0 W/m2
23:42 29.6 °F /  -1.3 °C 26.5 °F /  -3.1 °C 29.78in /  1008.4hPa WNW 3.0mph /  4.8km/h 4.0mph /  6.4km/h 88% 0.00in /  0mm 0 W/m2
23:48 29.5 °F /  -1.4 °C 26.4 °F /  -3.1 °C 29.78in /  1008.4hPa NW 3.0mph /  4.8km/h 5.0mph /  8km/h 88% 0.00in /  0mm 0 W/m2
23:54 29.4 °F /  -1.4 °C 26.3 °F /  -3.2 °C 29.79in /  1008.7hPa WNW 4.0mph /  6.4km/h 6.0mph /  9.7km/h 88% 0.00in /  0mm 0 W/m2
Country Meadow, Clay, NY, USA
Compliments of Weather Underground - 2 mb